Galeton, Colorado
Current Conditions -  °F | °C
As of 11:35 AM on Saturday 20 Dec 2014 (Local Time) from KGXY Reporting Station
Clear Clear  
Wind Chill: 32°   Ceiling: Unl
Heat Index: 36°   Visibility: 10mi
Dew Point: 21°   Wind: 5mph
Humidity: 56%   Direction: 310°NW
Pressure: 29.99"   Gusts: NA
Location:  40.52°N, 104.59°W
Report Text: KGXY 201835Z AUTO 31004KT 10SM CLR 02/M06 A2999 RMK AO1
Loading
Personal Weather Stations






























Interactive Weather Map New forecast layout! Learn more

10-Day Weather Forecast

Advertisements
Track Severe Weather on mobile